sensor_id;sensor_type;location;lat;lon;timestamp;temperature;humidity
316;DHT22;14128;48.686;9.738;2023-01-15T00:00:51;10.80;1.40
316;DHT22;14128;48.686;9.738;2023-01-15T00:03:19;10.80;1.40
316;DHT22;14128;48.686;9.738;2023-01-15T00:05:46;10.80;1.40
316;DHT22;14128;48.686;9.738;2023-01-15T00:08:12;10.80;1.40
316;DHT22;14128;48.686;9.738;2023-01-15T00:10:39;10.80;1.40
316;DHT22;14128;48.686;9.738;2023-01-15T00:13:06;10.70;1.40
316;DHT22;14128;48.686;9.738;2023-01-15T00:15:33;10.80;1.40
316;DHT22;14128;48.686;9.738;2023-01-15T00:18:00;10.80;1.40
316;DHT22;14128;48.686;9.738;2023-01-15T00:20:29;10.90;1.40
316;DHT22;14128;48.686;9.738;2023-01-15T00:22:56;10.90;1.40
316;DHT22;14128;48.686;9.738;2023-01-15T00:25:22;11.00;1.40
316;DHT22;14128;48.686;9.738;2023-01-15T00:28:07;10.90;1.40
316;DHT22;14128;48.686;9.738;2023-01-15T00:30:34;11.00;1.40
316;DHT22;14128;48.686;9.738;2023-01-15T00:33:05;11.10;1.40
316;DHT22;14128;48.686;9.738;2023-01-15T00:35:33;11.20;1.40
316;DHT22;14128;48.686;9.738;2023-01-15T00:38:00;11.20;1.40
316;DHT22;14128;48.686;9.738;2023-01-15T00:40:26;11.10;1.40
316;DHT22;14128;48.686;9.738;2023-01-15T00:42:53;11.20;1.40
316;DHT22;14128;48.686;9.738;2023-01-15T00:45:20;11.10;1.40
316;DHT22;14128;48.686;9.738;2023-01-15T00:47:47;11.10;1.40
316;DHT22;14128;48.686;9.738;2023-01-15T00:50:15;11.00;1.40
316;DHT22;14128;48.686;9.738;2023-01-15T00:52:43;11.10;1.40
316;DHT22;14128;48.686;9.738;2023-01-15T00:55:10;11.10;1.40
316;DHT22;14128;48.686;9.738;2023-01-15T00:57:37;11.10;1.40
316;DHT22;14128;48.686;9.738;2023-01-15T01:00:05;11.10;1.40
316;DHT22;14128;48.686;9.738;2023-01-15T01:02:32;11.10;1.40
316;DHT22;14128;48.686;9.738;2023-01-15T01:04:58;11.10;1.40
316;DHT22;14128;48.686;9.738;2023-01-15T01:07:25;11.10;1.40
316;DHT22;14128;48.686;9.738;2023-01-15T01:09:53;11.10;1.40
316;DHT22;14128;48.686;9.738;2023-01-15T01:12:20;11.20;1.40
316;DHT22;14128;48.686;9.738;2023-01-15T01:14:48;11.20;1.40
316;DHT22;14128;48.686;9.738;2023-01-15T01:17:15;11.20;1.40
316;DHT22;14128;48.686;9.738;2023-01-15T01:19:41;11.10;1.40
316;DHT22;14128;48.686;9.738;2023-01-15T01:22:08;11.10;1.40
316;DHT22;14128;48.686;9.738;2023-01-15T01:24:35;11.10;1.40
316;DHT22;14128;48.686;9.738;2023-01-15T01:27:03;11.10;1.40
316;DHT22;14128;48.686;9.738;2023-01-15T01:29:30;11.10;1.40
316;DHT22;14128;48.686;9.738;2023-01-15T01:31:57;11.10;1.40
316;DHT22;14128;48.686;9.738;2023-01-15T01:34:24;11.00;1.40
316;DHT22;14128;48.686;9.738;2023-01-15T01:36:50;11.00;1.40
316;DHT22;14128;48.686;9.738;2023-01-15T01:39:18;10.90;1.40
316;DHT22;14128;48.686;9.738;2023-01-15T01:41:46;10.90;1.40
316;DHT22;14128;48.686;9.738;2023-01-15T01:47:31;10.90;1.40
316;DHT22;14128;48.686;9.738;2023-01-15T01:50:00;10.90;1.40
316;DHT22;14128;48.686;9.738;2023-01-15T01:52:30;10.90;1.40
316;DHT22;14128;48.686;9.738;2023-01-15T01:54:59;10.80;1.40
316;DHT22;14128;48.686;9.738;2023-01-15T01:57:27;10.80;1.40
316;DHT22;14128;48.686;9.738;2023-01-15T01:59:54;10.80;1.40
316;DHT22;14128;48.686;9.738;2023-01-15T02:02:22;10.80;1.40
316;DHT22;14128;48.686;9.738;2023-01-15T02:04:51;10.80;1.40
316;DHT22;14128;48.686;9.738;2023-01-15T02:07:18;10.80;1.40
316;DHT22;14128;48.686;9.738;2023-01-15T02:09:45;10.80;1.40
316;DHT22;14128;48.686;9.738;2023-01-15T02:12:18;10.80;1.40
316;DHT22;14128;48.686;9.738;2023-01-15T02:14:53;10.90;1.40
316;DHT22;14128;48.686;9.738;2023-01-15T02:17:29;10.90;1.40
316;DHT22;14128;48.686;9.738;2023-01-15T02:20:11;10.80;1.40
316;DHT22;14128;48.686;9.738;2023-01-15T02:22:50;10.80;1.40
316;DHT22;14128;48.686;9.738;2023-01-15T02:25:22;10.80;1.40
316;DHT22;14128;48.686;9.738;2023-01-15T02:27:58;10.80;1.40
316;DHT22;14128;48.686;9.738;2023-01-15T02:30:29;10.90;1.40
316;DHT22;14128;48.686;9.738;2023-01-15T02:33:00;10.90;1.40
316;DHT22;14128;48.686;9.738;2023-01-15T02:35:33;10.90;1.40
316;DHT22;14128;48.686;9.738;2023-01-15T02:38:05;10.80;1.40
316;DHT22;14128;48.686;9.738;2023-01-15T02:40:34;10.90;1.40
316;DHT22;14128;48.686;9.738;2023-01-15T02:43:03;10.90;1.40
316;DHT22;14128;48.686;9.738;2023-01-15T02:45:34;10.90;1.40
316;DHT22;14128;48.686;9.738;2023-01-15T02:48:06;11.00;1.40
316;DHT22;14128;48.686;9.738;2023-01-15T02:50:36;11.00;1.40
316;DHT22;14128;48.686;9.738;2023-01-15T02:53:07;10.90;1.40
316;DHT22;14128;48.686;9.738;2023-01-15T02:55:36;11.00;1.40
316;DHT22;14128;48.686;9.738;2023-01-15T02:58:08;11.00;1.40
316;DHT22;14128;48.686;9.738;2023-01-15T03:00:41;11.00;1.40
316;DHT22;14128;48.686;9.738;2023-01-15T03:03:12;11.00;1.40
316;DHT22;14128;48.686;9.738;2023-01-15T03:05:44;11.00;1.40
316;DHT22;14128;48.686;9.738;2023-01-15T03:08:11;11.00;1.40
316;DHT22;14128;48.686;9.738;2023-01-15T03:10:42;11.00;1.40
316;DHT22;14128;48.686;9.738;2023-01-15T03:13:15;11.00;1.40
316;DHT22;14128;48.686;9.738;2023-01-15T03:15:50;11.00;1.40
316;DHT22;14128;48.686;9.738;2023-01-15T03:18:42;11.00;1.40
316;DHT22;14128;48.686;9.738;2023-01-15T03:21:13;11.00;1.40
316;DHT22;14128;48.686;9.738;2023-01-15T03:23:46;11.00;1.40
316;DHT22;14128;48.686;9.738;2023-01-15T03:26:15;11.00;1.40
316;DHT22;14128;48.686;9.738;2023-01-15T03:28:44;11.00;1.40
316;DHT22;14128;48.686;9.738;2023-01-15T03:31:11;11.00;1.40
316;DHT22;14128;48.686;9.738;2023-01-15T03:33:38;10.90;1.40
316;DHT22;14128;48.686;9.738;2023-01-15T03:36:06;10.90;1.40
316;DHT22;14128;48.686;9.738;2023-01-15T03:38:35;10.90;1.40
316;DHT22;14128;48.686;9.738;2023-01-15T03:41:13;10.90;1.40
316;DHT22;14128;48.686;9.738;2023-01-15T03:43:50;10.90;1.40
316;DHT22;14128;48.686;9.738;2023-01-15T03:46:29;10.90;1.40
316;DHT22;14128;48.686;9.738;2023-01-15T03:49:04;10.80;1.40
316;DHT22;14128;48.686;9.738;2023-01-15T03:51:37;10.80;1.40
316;DHT22;14128;48.686;9.738;2023-01-15T03:54:09;10.70;1.40
316;DHT22;14128;48.686;9.738;2023-01-15T03:56:42;10.70;1.40
316;DHT22;14128;48.686;9.738;2023-01-15T03:59:17;10.70;1.40
316;DHT22;14128;48.686;9.738;2023-01-15T04:01:48;10.60;1.40
316;DHT22;14128;48.686;9.738;2023-01-15T04:04:17;10.60;1.40
316;DHT22;14128;48.686;9.738;2023-01-15T04:06:44;10.60;1.40
316;DHT22;14128;48.686;9.738;2023-01-15T04:09:12;10.70;1.40
316;DHT22;14128;48.686;9.738;2023-01-15T04:11:39;10.60;1.40
316;DHT22;14128;48.686;9.738;2023-01-15T04:14:06;10.60;1.40
316;DHT22;14128;48.686;9.738;2023-01-15T04:16:34;10.70;1.40
316;DHT22;14128;48.686;9.738;2023-01-15T04:19:01;10.70;1.40
316;DHT22;14128;48.686;9.738;2023-01-15T04:21:28;10.70;1.40
316;DHT22;14128;48.686;9.738;2023-01-15T04:23:55;10.70;1.40
316;DHT22;14128;48.686;9.738;2023-01-15T04:26:22;10.60;1.40
316;DHT22;14128;48.686;9.738;2023-01-15T04:28:49;10.60;1.40
316;DHT22;14128;48.686;9.738;2023-01-15T04:31:15;10.60;1.40
316;DHT22;14128;48.686;9.738;2023-01-15T04:33:44;10.60;1.40
316;DHT22;14128;48.686;9.738;2023-01-15T04:36:11;10.60;1.40
316;DHT22;14128;48.686;9.738;2023-01-15T04:38:39;10.50;1.40
316;DHT22;14128;48.686;9.738;2023-01-15T04:41:05;10.50;1.40
316;DHT22;14128;48.686;9.738;2023-01-15T04:43:50;10.50;1.40
316;DHT22;14128;48.686;9.738;2023-01-15T04:46:33;10.50;1.40
316;DHT22;14128;48.686;9.738;2023-01-15T04:49:02;10.50;1.40
316;DHT22;14128;48.686;9.738;2023-01-15T04:51:29;10.50;1.40
316;DHT22;14128;48.686;9.738;2023-01-15T04:53:56;10.50;1.40
316;DHT22;14128;48.686;9.738;2023-01-15T04:56:23;10.50;1.40
316;DHT22;14128;48.686;9.738;2023-01-15T04:58:49;10.60;1.40
316;DHT22;14128;48.686;9.738;2023-01-15T05:01:16;10.60;1.40
316;DHT22;14128;48.686;9.738;2023-01-15T05:03:43;10.70;1.40
316;DHT22;14128;48.686;9.738;2023-01-15T05:06:12;10.80;1.40
316;DHT22;14128;48.686;9.738;2023-01-15T05:08:39;10.80;1.40
316;DHT22;14128;48.686;9.738;2023-01-15T05:11:07;10.90;1.40
316;DHT22;14128;48.686;9.738;2023-01-15T05:13:34;11.00;1.40
316;DHT22;14128;48.686;9.738;2023-01-15T05:16:08;11.10;1.40
316;DHT22;14128;48.686;9.738;2023-01-15T05:18:35;11.10;1.40
316;DHT22;14128;48.686;9.738;2023-01-15T05:21:02;11.20;1.40
316;DHT22;14128;48.686;9.738;2023-01-15T05:23:30;11.30;1.40
316;DHT22;14128;48.686;9.738;2023-01-15T05:25:57;11.50;1.40
316;DHT22;14128;48.686;9.738;2023-01-15T05:28:27;11.50;1.40
316;DHT22;14128;48.686;9.738;2023-01-15T05:30:54;11.60;1.40
316;DHT22;14128;48.686;9.738;2023-01-15T05:33:21;11.60;1.40
316;DHT22;14128;48.686;9.738;2023-01-15T05:35:48;11.70;1.40
316;DHT22;14128;48.686;9.738;2023-01-15T05:38:14;11.80;1.40
316;DHT22;14128;48.686;9.738;2023-01-15T05:40:42;11.90;1.40
316;DHT22;14128;48.686;9.738;2023-01-15T05:43:09;11.90;1.40
316;DHT22;14128;48.686;9.738;2023-01-15T05:45:36;12.10;1.40
316;DHT22;14128;48.686;9.738;2023-01-15T05:48:03;12.10;1.40
316;DHT22;14128;48.686;9.738;2023-01-15T05:50:30;12.20;1.40
316;DHT22;14128;48.686;9.738;2023-01-15T05:52:57;12.30;1.40
316;DHT22;14128;48.686;9.738;2023-01-15T05:55:24;12.30;1.40
316;DHT22;14128;48.686;9.738;2023-01-15T05:57:52;12.40;1.40
316;DHT22;14128;48.686;9.738;2023-01-15T06:00:19;12.20;1.40
316;DHT22;14128;48.686;9.738;2023-01-15T06:02:48;11.80;1.40
316;DHT22;14128;48.686;9.738;2023-01-15T06:05:16;11.60;1.40
316;DHT22;14128;48.686;9.738;2023-01-15T06:07:48;11.50;1.40
316;DHT22;14128;48.686;9.738;2023-01-15T06:10:17;11.50;1.40
316;DHT22;14128;48.686;9.738;2023-01-15T06:12:44;11.50;1.40
316;DHT22;14128;48.686;9.738;2023-01-15T06:15:13;11.50;1.40
316;DHT22;14128;48.686;9.738;2023-01-15T06:17:39;11.30;1.40
316;DHT22;14128;48.686;9.738;2023-01-15T06:20:08;11.10;1.40
316;DHT22;14128;48.686;9.738;2023-01-15T06:22:36;10.90;1.40
316;DHT22;14128;48.686;9.738;2023-01-15T06:25:04;10.70;1.40
316;DHT22;14128;48.686;9.738;2023-01-15T06:27:31;10.10;1.40
316;DHT22;14128;48.686;9.738;2023-01-15T06:29:57;9.10;1.40
316;DHT22;14128;48.686;9.738;2023-01-15T06:32:26;8.40;1.40
316;DHT22;14128;48.686;9.738;2023-01-15T06:34:53;8.00;1.40
316;DHT22;14128;48.686;9.738;2023-01-15T06:37:19;7.90;1.40
316;DHT22;14128;48.686;9.738;2023-01-15T06:39:46;7.70;1.40
316;DHT22;14128;48.686;9.738;2023-01-15T06:42:13;7.70;1.40
316;DHT22;14128;48.686;9.738;2023-01-15T06:44:57;7.60;1.40
316;DHT22;14128;48.686;9.738;2023-01-15T06:47:43;7.60;1.40
316;DHT22;14128;48.686;9.738;2023-01-15T06:50:11;7.50;1.40
316;DHT22;14128;48.686;9.738;2023-01-15T06:52:39;7.50;1.40
316;DHT22;14128;48.686;9.738;2023-01-15T06:55:06;7.50;1.40
316;DHT22;14128;48.686;9.738;2023-01-15T06:57:33;7.50;1.40
316;DHT22;14128;48.686;9.738;2023-01-15T07:00:00;7.40;1.40
316;DHT22;14128;48.686;9.738;2023-01-15T07:02:27;7.40;1.40
316;DHT22;14128;48.686;9.738;2023-01-15T07:04:55;7.40;1.40
316;DHT22;14128;48.686;9.738;2023-01-15T07:07:22;7.30;1.40
316;DHT22;14128;48.686;9.738;2023-01-15T07:09:49;7.20;1.40
316;DHT22;14128;48.686;9.738;2023-01-15T07:12:16;7.20;1.40
316;DHT22;14128;48.686;9.738;2023-01-15T07:14:43;7.10;1.40
316;DHT22;14128;48.686;9.738;2023-01-15T07:17:10;7.10;1.40
316;DHT22;14128;48.686;9.738;2023-01-15T07:19:37;7.00;1.40
316;DHT22;14128;48.686;9.738;2023-01-15T07:22:06;6.90;1.40
316;DHT22;14128;48.686;9.738;2023-01-15T07:24:33;7.00;1.40
316;DHT22;14128;48.686;9.738;2023-01-15T07:27:00;6.90;1.40
316;DHT22;14128;48.686;9.738;2023-01-15T07:29:27;6.80;1.40
316;DHT22;14128;48.686;9.738;2023-01-15T07:31:55;6.70;1.40
316;DHT22;14128;48.686;9.738;2023-01-15T07:34:22;6.70;1.40
316;DHT22;14128;48.686;9.738;2023-01-15T07:36:48;6.60;1.40
316;DHT22;14128;48.686;9.738;2023-01-15T07:39:17;6.40;1.40
316;DHT22;14128;48.686;9.738;2023-01-15T07:41:43;6.40;1.40
316;DHT22;14128;48.686;9.738;2023-01-15T07:44:28;6.00;1.40
316;DHT22;14128;48.686;9.738;2023-01-15T07:47:17;6.20;1.40
316;DHT22;14128;48.686;9.738;2023-01-15T07:50:03;6.00;1.40
316;DHT22;14128;48.686;9.738;2023-01-15T07:52:30;5.80;1.40
316;DHT22;14128;48.686;9.738;2023-01-15T07:54:58;5.60;1.40
316;DHT22;14128;48.686;9.738;2023-01-15T07:57:25;5.40;1.40
316;DHT22;14128;48.686;9.738;2023-01-15T07:59:52;5.40;1.40
316;DHT22;14128;48.686;9.738;2023-01-15T08:02:19;5.40;1.40
316;DHT22;14128;48.686;9.738;2023-01-15T08:04:46;5.30;1.40
316;DHT22;14128;48.686;9.738;2023-01-15T08:07:13;5.30;1.40
316;DHT22;14128;48.686;9.738;2023-01-15T08:09:40;5.30;1.40
316;DHT22;14128;48.686;9.738;2023-01-15T08:12:10;5.30;1.40
316;DHT22;14128;48.686;9.738;2023-01-15T08:14:54;5.20;1.40
316;DHT22;14128;48.686;9.738;2023-01-15T08:17:41;5.10;1.40
316;DHT22;14128;48.686;9.738;2023-01-15T08:20:10;5.00;1.40
316;DHT22;14128;48.686;9.738;2023-01-15T08:22:37;5.10;1.40
316;DHT22;14128;48.686;9.738;2023-01-15T08:25:07;5.00;1.40
316;DHT22;14128;48.686;9.738;2023-01-15T08:27:36;5.00;1.40
316;DHT22;14128;48.686;9.738;2023-01-15T08:30:04;5.00;1.40
316;DHT22;14128;48.686;9.738;2023-01-15T08:32:31;5.00;1.40
316;DHT22;14128;48.686;9.738;2023-01-15T08:34:58;5.00;1.40
316;DHT22;14128;48.686;9.738;2023-01-15T08:37:25;5.00;1.40
316;DHT22;14128;48.686;9.738;2023-01-15T08:39:52;5.00;1.40
316;DHT22;14128;48.686;9.738;2023-01-15T08:42:20;5.10;1.40
316;DHT22;14128;48.686;9.738;2023-01-15T08:44:48;5.10;1.40
316;DHT22;14128;48.686;9.738;2023-01-15T08:47:16;5.20;1.40
316;DHT22;14128;48.686;9.738;2023-01-15T08:49:43;5.20;1.40
316;DHT22;14128;48.686;9.738;2023-01-15T08:52:11;5.40;1.40
316;DHT22;14128;48.686;9.738;2023-01-15T08:54:38;5.30;1.40
316;DHT22;14128;48.686;9.738;2023-01-15T08:57:05;5.30;1.40
316;DHT22;14128;48.686;9.738;2023-01-15T08:59:33;5.30;1.40
316;DHT22;14128;48.686;9.738;2023-01-15T09:02:01;5.40;1.40
316;DHT22;14128;48.686;9.738;2023-01-15T09:04:29;5.30;1.40
316;DHT22;14128;48.686;9.738;2023-01-15T09:06:56;5.40;1.40
316;DHT22;14128;48.686;9.738;2023-01-15T09:09:22;5.40;1.40
316;DHT22;14128;48.686;9.738;2023-01-15T09:11:49;5.50;1.40
316;DHT22;14128;48.686;9.738;2023-01-15T09:14:16;5.50;1.40
316;DHT22;14128;48.686;9.738;2023-01-15T09:16:43;5.50;1.40
316;DHT22;14128;48.686;9.738;2023-01-15T09:19:11;5.50;1.40
316;DHT22;14128;48.686;9.738;2023-01-15T09:21:38;5.50;1.40
316;DHT22;14128;48.686;9.738;2023-01-15T09:24:05;5.40;1.40
316;DHT22;14128;48.686;9.738;2023-01-15T09:26:34;5.50;1.40
316;DHT22;14128;48.686;9.738;2023-01-15T09:29:02;5.50;1.40
316;DHT22;14128;48.686;9.738;2023-01-15T09:31:30;5.50;1.40
316;DHT22;14128;48.686;9.738;2023-01-15T09:33:57;5.60;1.40
316;DHT22;14128;48.686;9.738;2023-01-15T09:36:27;5.60;1.40
316;DHT22;14128;48.686;9.738;2023-01-15T09:38:54;5.50;1.40
316;DHT22;14128;48.686;9.738;2023-01-15T09:41:22;5.40;1.40
316;DHT22;14128;48.686;9.738;2023-01-15T09:44:20;5.40;1.40
316;DHT22;14128;48.686;9.738;2023-01-15T09:46:59;5.30;1.40
316;DHT22;14128;48.686;9.738;2023-01-15T09:49:39;5.40;1.40
316;DHT22;14128;48.686;9.738;2023-01-15T09:52:18;5.30;1.40
316;DHT22;14128;48.686;9.738;2023-01-15T09:54:58;5.40;1.40
316;DHT22;14128;48.686;9.738;2023-01-15T09:57:27;5.30;1.40
316;DHT22;14128;48.686;9.738;2023-01-15T09:59:55;5.30;1.40
316;DHT22;14128;48.686;9.738;2023-01-15T10:02:29;5.30;1.40
316;DHT22;14128;48.686;9.738;2023-01-15T10:05:02;5.40;1.40
316;DHT22;14128;48.686;9.738;2023-01-15T10:07:35;5.40;1.40
316;DHT22;14128;48.686;9.738;2023-01-15T10:10:05;5.40;1.40
316;DHT22;14128;48.686;9.738;2023-01-15T10:12:37;5.60;1.40
316;DHT22;14128;48.686;9.738;2023-01-15T10:15:23;5.60;1.40
316;DHT22;14128;48.686;9.738;2023-01-15T10:17:51;5.60;1.40
316;DHT22;14128;48.686;9.738;2023-01-15T10:20:34;5.70;1.40
316;DHT22;14128;48.686;9.738;2023-01-15T10:23:29;5.70;1.40
316;DHT22;14128;48.686;9.738;2023-01-15T10:26:02;5.70;1.40
316;DHT22;14128;48.686;9.738;2023-01-15T10:28:30;5.70;1.40
316;DHT22;14128;48.686;9.738;2023-01-15T10:31:05;5.70;1.40
316;DHT22;14128;48.686;9.738;2023-01-15T10:33:53;5.70;1.40
316;DHT22;14128;48.686;9.738;2023-01-15T10:36:26;5.60;1.40
316;DHT22;14128;48.686;9.738;2023-01-15T10:39:00;5.70;1.40
316;DHT22;14128;48.686;9.738;2023-01-15T10:41:41;5.60;1.40
316;DHT22;14128;48.686;9.738;2023-01-15T10:44:15;5.60;1.40
316;DHT22;14128;48.686;9.738;2023-01-15T10:46:48;5.50;1.40
316;DHT22;14128;48.686;9.738;2023-01-15T10:49:18;5.50;1.40
316;DHT22;14128;48.686;9.738;2023-01-15T10:51:49;5.40;1.40
316;DHT22;14128;48.686;9.738;2023-01-15T10:54:23;5.40;1.40
316;DHT22;14128;48.686;9.738;2023-01-15T10:56:55;5.40;1.40
316;DHT22;14128;48.686;9.738;2023-01-15T10:59:33;5.30;1.40
316;DHT22;14128;48.686;9.738;2023-01-15T11:02:03;5.30;1.40
316;DHT22;14128;48.686;9.738;2023-01-15T11:04:37;5.30;1.40
316;DHT22;14128;48.686;9.738;2023-01-15T11:07:08;5.30;1.40
316;DHT22;14128;48.686;9.738;2023-01-15T11:09:37;5.30;1.40
316;DHT22;14128;48.686;9.738;2023-01-15T11:12:16;5.30;1.40
316;DHT22;14128;48.686;9.738;2023-01-15T11:15:12;5.30;1.40
316;DHT22;14128;48.686;9.738;2023-01-15T11:17:57;5.20;1.40
316;DHT22;14128;48.686;9.738;2023-01-15T11:20:43;5.10;1.40
316;DHT22;14128;48.686;9.738;2023-01-15T11:23:11;5.00;1.40
316;DHT22;14128;48.686;9.738;2023-01-15T11:25:48;4.80;1.40
316;DHT22;14128;48.686;9.738;2023-01-15T11:28:15;4.80;1.40
316;DHT22;14128;48.686;9.738;2023-01-15T11:30:51;4.70;1.40
316;DHT22;14128;48.686;9.738;2023-01-15T11:33:22;4.60;1.40
316;DHT22;14128;48.686;9.738;2023-01-15T11:35:50;4.50;1.40
316;DHT22;14128;48.686;9.738;2023-01-15T11:38:17;4.50;1.40
316;DHT22;14128;48.686;9.738;2023-01-15T11:40:52;4.20;1.40
316;DHT22;14128;48.686;9.738;2023-01-15T11:43:21;4.10;1.40
316;DHT22;14128;48.686;9.738;2023-01-15T11:46:25;4.00;1.40
316;DHT22;14128;48.686;9.738;2023-01-15T11:49:08;3.80;1.40
316;DHT22;14128;48.686;9.738;2023-01-15T11:51:55;3.70;1.40
316;DHT22;14128;48.686;9.738;2023-01-15T11:54:24;3.60;1.40
316;DHT22;14128;48.686;9.738;2023-01-15T11:56:53;3.50;1.40
316;DHT22;14128;48.686;9.738;2023-01-15T11:59:21;3.60;1.40
316;DHT22;14128;48.686;9.738;2023-01-15T12:01:50;3.60;1.40
316;DHT22;14128;48.686;9.738;2023-01-15T12:04:30;3.60;1.40
316;DHT22;14128;48.686;9.738;2023-01-15T12:07:00;3.50;1.40
316;DHT22;14128;48.686;9.738;2023-01-15T12:09:40;3.50;1.40
316;DHT22;14128;48.686;9.738;2023-01-15T12:12:18;3.50;1.40
316;DHT22;14128;48.686;9.738;2023-01-15T12:15:06;3.60;1.40
316;DHT22;14128;48.686;9.738;2023-01-15T12:18:10;3.60;1.40
316;DHT22;14128;48.686;9.738;2023-01-15T12:20:53;3.60;1.40
316;DHT22;14128;48.686;9.738;2023-01-15T12:23:41;3.50;1.40
316;DHT22;14128;48.686;9.738;2023-01-15T12:26:17;3.60;1.40
316;DHT22;14128;48.686;9.738;2023-01-15T12:28:53;3.60;1.40
316;DHT22;14128;48.686;9.738;2023-01-15T12:31:26;3.60;1.40
316;DHT22;14128;48.686;9.738;2023-01-15T12:33:58;3.50;1.40
316;DHT22;14128;48.686;9.738;2023-01-15T12:36:30;3.60;1.40
316;DHT22;14128;48.686;9.738;2023-01-15T12:39:00;3.50;1.40
316;DHT22;14128;48.686;9.738;2023-01-15T12:41:30;3.50;1.40
316;DHT22;14128;48.686;9.738;2023-01-15T12:44:15;3.40;1.40
316;DHT22;14128;48.686;9.738;2023-01-15T12:47:00;3.40;1.40
316;DHT22;14128;48.686;9.738;2023-01-15T12:49:31;3.40;1.40
316;DHT22;14128;48.686;9.738;2023-01-15T12:52:06;3.50;1.40
316;DHT22;14128;48.686;9.738;2023-01-15T12:54:37;3.40;1.40
316;DHT22;14128;48.686;9.738;2023-01-15T12:57:11;3.40;1.40
316;DHT22;14128;48.686;9.738;2023-01-15T12:59:47;3.40;1.40
316;DHT22;14128;48.686;9.738;2023-01-15T13:02:23;3.50;1.40
316;DHT22;14128;48.686;9.738;2023-01-15T13:04:56;3.50;1.40
316;DHT22;14128;48.686;9.738;2023-01-15T13:07:30;3.50;1.40
316;DHT22;14128;48.686;9.738;2023-01-15T13:10:03;3.60;1.40
316;DHT22;14128;48.686;9.738;2023-01-15T13:12:33;3.60;1.40
316;DHT22;14128;48.686;9.738;2023-01-15T13:15:02;3.60;1.40
316;DHT22;14128;48.686;9.738;2023-01-15T13:17:35;3.60;1.40
316;DHT22;14128;48.686;9.738;2023-01-15T13:20:25;3.50;1.40
316;DHT22;14128;48.686;9.738;2023-01-15T13:23:01;3.50;1.40
316;DHT22;14128;48.686;9.738;2023-01-15T13:25:47;3.50;1.40
316;DHT22;14128;48.686;9.738;2023-01-15T13:28:30;3.50;1.40
316;DHT22;14128;48.686;9.738;2023-01-15T13:31:07;3.50;1.40
316;DHT22;14128;48.686;9.738;2023-01-15T13:33:39;3.50;1.40
316;DHT22;14128;48.686;9.738;2023-01-15T13:36:13;3.50;1.40
316;DHT22;14128;48.686;9.738;2023-01-15T13:38:42;3.50;1.40
316;DHT22;14128;48.686;9.738;2023-01-15T13:41:17;3.50;1.40
316;DHT22;14128;48.686;9.738;2023-01-15T13:44:05;3.40;1.40
316;DHT22;14128;48.686;9.738;2023-01-15T13:46:33;3.40;1.40
316;DHT22;14128;48.686;9.738;2023-01-15T13:49:00;3.40;1.40
316;DHT22;14128;48.686;9.738;2023-01-15T13:51:31;3.30;1.40
316;DHT22;14128;48.686;9.738;2023-01-15T13:54:02;3.40;1.40
316;DHT22;14128;48.686;9.738;2023-01-15T13:56:30;3.30;1.40
316;DHT22;14128;48.686;9.738;2023-01-15T13:58:59;3.30;1.40
316;DHT22;14128;48.686;9.738;2023-01-15T14:01:33;3.30;1.40
316;DHT22;14128;48.686;9.738;2023-01-15T14:04:05;3.40;1.40
316;DHT22;14128;48.686;9.738;2023-01-15T14:06:41;3.40;1.40
316;DHT22;14128;48.686;9.738;2023-01-15T14:09:13;3.40;1.40
316;DHT22;14128;48.686;9.738;2023-01-15T14:11:53;3.40;1.40
316;DHT22;14128;48.686;9.738;2023-01-15T14:14:39;3.50;1.40
316;DHT22;14128;48.686;9.738;2023-01-15T14:17:46;3.50;1.40
316;DHT22;14128;48.686;9.738;2023-01-15T14:20:39;3.50;1.40
316;DHT22;14128;48.686;9.738;2023-01-15T14:23:29;3.50;1.40
316;DHT22;14128;48.686;9.738;2023-01-15T14:26:07;3.60;1.40
316;DHT22;14128;48.686;9.738;2023-01-15T14:28:53;3.60;1.40
316;DHT22;14128;48.686;9.738;2023-01-15T14:31:32;3.60;1.40
316;DHT22;14128;48.686;9.738;2023-01-15T14:34:12;3.60;1.40
316;DHT22;14128;48.686;9.738;2023-01-15T14:36:45;3.70;1.40
316;DHT22;14128;48.686;9.738;2023-01-15T14:39:31;3.70;1.40
316;DHT22;14128;48.686;9.738;2023-01-15T14:42:04;3.90;1.40
316;DHT22;14128;48.686;9.738;2023-01-15T14:44:56;3.90;1.40
316;DHT22;14128;48.686;9.738;2023-01-15T14:47:27;4.10;1.40
316;DHT22;14128;48.686;9.738;2023-01-15T14:52:44;4.10;1.40
316;DHT22;14128;48.686;9.738;2023-01-15T14:55:11;4.00;1.40
316;DHT22;14128;48.686;9.738;2023-01-15T14:57:41;4.10;1.40
316;DHT22;14128;48.686;9.738;2023-01-15T15:00:14;3.90;1.40
316;DHT22;14128;48.686;9.738;2023-01-15T15:02:43;3.80;1.40
316;DHT22;14128;48.686;9.738;2023-01-15T15:05:15;3.70;1.40
316;DHT22;14128;48.686;9.738;2023-01-15T15:07:45;3.50;1.40
316;DHT22;14128;48.686;9.738;2023-01-15T15:10:21;3.60;1.40
316;DHT22;14128;48.686;9.738;2023-01-15T15:12:56;3.50;1.40
316;DHT22;14128;48.686;9.738;2023-01-15T15:15:34;3.50;1.40
316;DHT22;14128;48.686;9.738;2023-01-15T15:18:04;3.50;1.40
316;DHT22;14128;48.686;9.738;2023-01-15T15:20:42;3.60;1.40
316;DHT22;14128;48.686;9.738;2023-01-15T15:23:14;3.60;1.40
316;DHT22;14128;48.686;9.738;2023-01-15T15:25:41;3.50;1.40
316;DHT22;14128;48.686;9.738;2023-01-15T15:28:10;3.40;1.40
316;DHT22;14128;48.686;9.738;2023-01-15T15:30:41;3.30;1.40
316;DHT22;14128;48.686;9.738;2023-01-15T15:33:14;3.30;1.40
316;DHT22;14128;48.686;9.738;2023-01-15T15:35:45;3.30;1.40
316;DHT22;14128;48.686;9.738;2023-01-15T15:38:16;3.10;1.40
316;DHT22;14128;48.686;9.738;2023-01-15T15:40:46;3.10;1.40
316;DHT22;14128;48.686;9.738;2023-01-15T15:43:16;3.00;1.40
316;DHT22;14128;48.686;9.738;2023-01-15T15:46:24;3.00;1.40
316;DHT22;14128;48.686;9.738;2023-01-15T15:49:10;2.90;1.40
316;DHT22;14128;48.686;9.738;2023-01-15T15:51:44;2.90;1.40
316;DHT22;14128;48.686;9.738;2023-01-15T15:54:15;2.90;1.40
316;DHT22;14128;48.686;9.738;2023-01-15T15:56:47;2.90;1.40
316;DHT22;14128;48.686;9.738;2023-01-15T15:59:26;2.80;1.40
316;DHT22;14128;48.686;9.738;2023-01-15T16:01:54;2.70;1.40
316;DHT22;14128;48.686;9.738;2023-01-15T16:04:22;2.60;1.40
316;DHT22;14128;48.686;9.738;2023-01-15T16:06:51;2.60;1.40
316;DHT22;14128;48.686;9.738;2023-01-15T16:09:22;2.60;1.40
316;DHT22;14128;48.686;9.738;2023-01-15T16:11:51;2.60;1.40
316;DHT22;14128;48.686;9.738;2023-01-15T16:14:19;2.60;1.40
316;DHT22;14128;48.686;9.738;2023-01-15T16:16:48;2.60;1.40
316;DHT22;14128;48.686;9.738;2023-01-15T16:19:18;2.50;1.40
316;DHT22;14128;48.686;9.738;2023-01-15T16:21:47;2.50;1.40
316;DHT22;14128;48.686;9.738;2023-01-15T16:24:25;2.50;1.40
316;DHT22;14128;48.686;9.738;2023-01-15T16:26:56;2.50;1.40
316;DHT22;14128;48.686;9.738;2023-01-15T16:29:25;2.50;1.40
316;DHT22;14128;48.686;9.738;2023-01-15T16:31:52;2.60;1.40
316;DHT22;14128;48.686;9.738;2023-01-15T16:34:22;2.50;1.40
316;DHT22;14128;48.686;9.738;2023-01-15T16:36:50;2.50;1.40
316;DHT22;14128;48.686;9.738;2023-01-15T16:39:22;2.60;1.40
316;DHT22;14128;48.686;9.738;2023-01-15T16:41:50;2.60;1.40
316;DHT22;14128;48.686;9.738;2023-01-15T16:44:34;2.50;1.40
316;DHT22;14128;48.686;9.738;2023-01-15T16:47:02;2.50;1.40
316;DHT22;14128;48.686;9.738;2023-01-15T16:49:31;2.40;1.40
316;DHT22;14128;48.686;9.738;2023-01-15T16:52:00;2.40;1.40
316;DHT22;14128;48.686;9.738;2023-01-15T16:54:42;2.30;1.40
316;DHT22;14128;48.686;9.738;2023-01-15T16:57:30;2.20;1.40
316;DHT22;14128;48.686;9.738;2023-01-15T17:00:03;2.10;1.40
316;DHT22;14128;48.686;9.738;2023-01-15T17:02:43;2.10;1.40